createdAt,value
2018-03-24T04:01:18.782Z,99.90
2018-03-24T04:03:47.861Z,99.90
2018-03-24T04:06:16.191Z,99.90
2018-03-24T04:08:44.505Z,99.90
2018-03-24T04:11:13.797Z,99.90
2018-03-24T04:13:42.116Z,99.90
2018-03-24T04:16:10.516Z,99.90
2018-03-24T04:18:38.823Z,99.90
2018-03-24T04:21:07.158Z,99.90
2018-03-24T04:23:35.485Z,99.90
2018-03-24T04:26:03.817Z,99.90
2018-03-24T04:28:32.243Z,99.90
2018-03-24T04:31:00.582Z,99.90
2018-03-24T04:33:28.905Z,99.90
2018-03-24T04:35:57.278Z,99.90
2018-03-24T04:38:31.405Z,99.90
2018-03-24T04:41:00.108Z,99.90
2018-03-24T04:43:29.185Z,99.90
2018-03-24T04:45:57.530Z,99.90
2018-03-24T04:48:25.864Z,99.90
2018-03-24T04:50:54.969Z,99.90
2018-03-24T04:53:23.281Z,99.90
2018-03-24T04:55:51.621Z,99.90
2018-03-24T04:58:20.707Z,99.90
2018-03-24T05:00:49.815Z,99.90
2018-03-24T05:03:18.135Z,99.90
2018-03-24T05:05:46.480Z,99.90
2018-03-24T05:08:14.794Z,99.90
2018-03-24T05:10:43.131Z,99.90
2018-03-24T05:13:11.449Z,99.90
2018-03-24T05:15:39.794Z,99.90
2018-03-24T05:18:08.101Z,99.90
2018-03-24T05:20:37.222Z,99.90
2018-03-24T05:23:05.532Z,99.90
2018-03-24T05:25:33.855Z,99.90
2018-03-24T05:28:02.192Z,99.90
2018-03-24T05:30:32.378Z,99.90
2018-03-24T05:33:00.717Z,99.90
2018-03-24T05:35:29.029Z,99.90
2018-03-24T05:37:57.371Z,99.90
2018-03-24T05:40:25.681Z,99.90
2018-03-24T05:42:54.008Z,99.90
2018-03-24T05:51:24.173Z,99.90
2018-03-24T05:53:52.489Z,99.90
2018-03-24T05:56:20.810Z,99.90
2018-03-24T05:58:49.910Z,99.90
2018-03-24T06:01:18.995Z,99.90
2018-03-24T06:03:48.089Z,99.90
2018-03-24T06:06:17.169Z,99.90
2018-03-24T06:08:45.505Z,99.90
2018-03-24T06:11:13.835Z,99.90
2018-03-24T06:13:42.178Z,99.90
2018-03-24T06:16:10.486Z,99.90
2018-03-24T06:18:38.817Z,99.90
2018-03-24T06:21:07.134Z,99.90
2018-03-24T06:23:35.473Z,99.90
2018-03-24T06:26:03.857Z,99.90
2018-03-24T06:28:32.920Z,99.90
2018-03-24T06:31:04.197Z,99.90
2018-03-24T06:33:32.542Z,99.90
2018-03-24T06:36:01.627Z,99.90
2018-03-24T06:38:30.746Z,99.90
2018-03-24T06:40:59.071Z,99.90
2018-03-24T06:43:27.416Z,99.90
2018-03-24T06:45:55.730Z,99.90
2018-03-24T06:48:28.217Z,99.90
2018-03-24T06:50:56.525Z,99.90
2018-03-24T06:53:24.857Z,99.90
2018-03-24T06:55:53.176Z,99.90
2018-03-24T06:58:21.528Z,99.90
2018-03-24T07:00:49.841Z,99.90
2018-03-24T07:03:18.185Z,99.90
2018-03-24T07:05:46.510Z,99.90
2018-03-24T07:08:14.844Z,99.90
2018-03-24T07:10:43.952Z,99.90
2018-03-24T07:13:13.029Z,99.90
2018-03-24T07:15:41.369Z,99.90
2018-03-24T07:18:09.677Z,99.90
2018-03-24T07:20:38.005Z,99.90
2018-03-24T07:23:06.321Z,99.90
2018-03-24T07:25:34.657Z,99.90
2018-03-24T07:28:02.973Z,99.90
2018-03-24T07:30:31.307Z,99.90
2018-03-24T07:33:00.599Z,99.90
2018-03-24T07:35:29.688Z,99.90
2018-03-24T07:37:58.757Z,99.90
2018-03-24T07:40:27.090Z,99.90
2018-03-24T07:42:55.498Z,99.90
2018-03-24T07:45:23.831Z,99.90
2018-03-24T07:47:52.897Z,99.90
2018-03-24T07:50:21.229Z,99.90
2018-03-24T07:52:49.541Z,99.90
2018-03-24T07:55:17.869Z,99.90
2018-03-24T08:00:46.156Z,99.90
2018-03-24T08:03:14.480Z,99.90
2018-03-24T08:05:44.843Z,99.90
2018-03-24T08:08:13.161Z,99.90
2018-03-24T08:10:41.556Z,99.90
2018-03-24T08:13:09.890Z,99.90
2018-03-24T08:15:38.994Z,99.90
2018-03-24T08:18:07.308Z,99.90
2018-03-24T08:20:35.645Z,99.90
2018-03-24T08:23:04.721Z,99.90
2018-03-24T08:25:33.830Z,99.90
2018-03-24T08:28:02.909Z,99.90
2018-03-24T08:30:31.245Z,99.90
2018-03-24T08:33:00.368Z,99.90
2018-03-24T08:35:28.694Z,99.90
2018-03-24T08:37:57.022Z,99.90
2018-03-24T08:40:25.451Z,99.90
2018-03-24T08:42:54.023Z,99.90
2018-03-24T08:45:23.116Z,99.90
2018-03-24T08:47:52.185Z,99.90
2018-03-24T08:50:20.530Z,99.90
2018-03-24T08:52:48.833Z,99.90
2018-03-24T08:55:17.165Z,99.90
2018-03-24T08:57:45.473Z,99.90
2018-03-24T09:00:13.814Z,99.90
2018-03-24T09:02:42.151Z,99.90
2018-03-24T09:05:10.485Z,99.90
2018-03-24T09:07:38.797Z,99.90
2018-03-24T09:10:07.124Z,99.90
2018-03-24T09:12:35.432Z,99.90
2018-03-24T09:15:03.815Z,99.90
2018-03-24T09:17:32.089Z,99.90
2018-03-24T09:20:00.416Z,99.90
2018-03-24T09:22:29.497Z,99.90
2018-03-24T09:24:57.825Z,99.90
2018-03-24T09:27:27.065Z,99.90
2018-03-24T09:29:56.038Z,99.90
2018-03-24T09:32:25.254Z,99.90
2018-03-24T09:34:53.659Z,99.90
2018-03-24T09:37:22.114Z,99.90
2018-03-24T09:39:50.444Z,99.90
2018-03-24T09:42:18.753Z,99.90
2018-03-24T09:44:47.148Z,99.90
2018-03-24T09:47:15.463Z,99.90
2018-03-24T09:49:44.591Z,99.90
2018-03-24T09:52:12.892Z,99.90
2018-03-24T09:54:41.225Z,99.90
2018-03-24T09:57:09.532Z,99.90
2018-03-24T09:59:37.889Z,99.90
2018-03-24T10:02:06.200Z,99.90
2018-03-24T10:04:34.508Z,99.90
2018-03-24T10:07:03.604Z,99.90
2018-03-24T10:09:32.678Z,99.90
2018-03-24T10:12:01.004Z,99.90
2018-03-24T10:14:29.314Z,99.90
2018-03-24T10:17:01.209Z,99.90
2018-03-24T10:19:29.520Z,99.90
2018-03-24T10:24:59.770Z,99.90
2018-03-24T10:27:28.093Z,99.90
2018-03-24T10:29:56.436Z,99.90
2018-03-24T10:32:24.740Z,99.90
2018-03-24T10:34:58.817Z,99.90
2018-03-24T10:37:27.119Z,99.90
2018-03-24T10:39:55.494Z,99.90
2018-03-24T10:42:23.833Z,99.90
2018-03-24T10:44:52.901Z,99.90
2018-03-24T10:47:21.229Z,99.90
2018-03-24T10:49:49.543Z,99.90
2018-03-24T10:52:17.869Z,99.90
2018-03-24T10:54:46.185Z,99.90
2018-03-24T10:57:14.521Z,99.90
2018-03-24T10:59:42.856Z,99.90
2018-03-24T11:02:11.268Z,99.90
2018-03-24T11:04:40.422Z,99.90
2018-03-24T11:07:08.778Z,99.90
2018-03-24T11:09:37.078Z,99.90
2018-03-24T11:12:05.417Z,99.90
2018-03-24T11:14:33.725Z,99.90
2018-03-24T11:17:02.064Z,99.90
2018-03-24T11:19:30.393Z,99.90
2018-03-24T11:21:58.715Z,99.90
2018-03-24T11:24:27.784Z,99.90
2018-03-24T11:26:56.140Z,99.90
2018-03-24T11:29:25.226Z,99.90
2018-03-24T11:31:53.547Z,99.90
2018-03-24T11:34:22.618Z,99.90
2018-03-24T11:36:50.957Z,99.90
2018-03-24T11:39:19.270Z,99.90
2018-03-24T11:41:47.605Z,99.90
2018-03-24T11:44:15.928Z,99.90
2018-03-24T11:46:44.261Z,99.00
2018-03-24T11:49:12.577Z,99.90
2018-03-24T11:51:40.908Z,99.90
2018-03-24T11:54:09.216Z,94.80
2018-03-24T11:56:37.550Z,99.90
2018-03-24T11:59:06.617Z,96.50
2018-03-24T12:01:34.941Z,96.60
2018-03-24T12:04:03.248Z,98.70
2018-03-24T12:06:31.597Z,98.30
2018-03-24T12:08:59.915Z,90.70
2018-03-24T12:11:28.225Z,96.00
2018-03-24T12:13:57.325Z,87.50
2018-03-24T12:16:26.447Z,92.70
2018-03-24T12:18:54.776Z,92.90
2018-03-24T12:21:23.109Z,89.40
2018-03-24T12:23:51.671Z,92.00
2018-03-24T12:26:19.984Z,84.60
2018-03-24T12:28:48.314Z,95.40
2018-03-24T12:31:17.388Z,77.50
2018-03-24T12:33:47.734Z,77.80
2018-03-24T12:36:16.815Z,91.70
2018-03-24T12:38:45.147Z,91.70
2018-03-24T12:41:13.463Z,92.50
2018-03-24T12:43:41.803Z,98.20
2018-03-24T12:46:12.874Z,93.80
2018-03-24T12:48:41.217Z,95.90
2018-03-24T12:51:09.525Z,96.10
2018-03-24T12:53:37.848Z,97.70
2018-03-24T12:56:06.917Z,99.90
2018-03-24T12:58:36.221Z,99.90
2018-03-24T13:01:04.526Z,99.90
2018-03-24T13:03:33.630Z,99.90
2018-03-24T13:06:01.934Z,99.90
2018-03-24T13:08:30.274Z,98.20
2018-03-24T13:10:59.349Z,99.90
2018-03-24T13:13:27.677Z,99.90
2018-03-24T13:15:55.992Z,99.90
2018-03-24T13:18:24.337Z,99.60
2018-03-24T13:20:52.649Z,99.60
2018-03-24T13:23:20.994Z,99.90
2018-03-24T13:25:49.314Z,99.90
2018-03-24T13:28:17.649Z,98.60
2018-03-24T13:30:45.969Z,98.90
2018-03-24T13:33:14.315Z,98.60
2018-03-24T13:35:43.397Z,99.50
2018-03-24T13:38:11.731Z,99.50
2018-03-24T13:40:40.999Z,99.90
2018-03-24T13:43:09.337Z,99.90
2018-03-24T13:45:37.645Z,94.90
2018-03-24T13:48:06.776Z,97.60
2018-03-24T13:50:35.858Z,95.70
2018-03-24T13:53:04.190Z,95.70
2018-03-24T13:55:32.592Z,97.40
2018-03-24T13:58:00.921Z,96.30
2018-03-24T14:00:30.009Z,95.60
2018-03-24T14:02:59.113Z,94.00
2018-03-24T14:05:28.206Z,94.90
2018-03-24T14:07:57.304Z,92.90
2018-03-24T14:10:26.410Z,90.40
2018-03-24T14:12:54.759Z,90.40
2018-03-24T14:15:23.077Z,91.80
2018-03-24T14:17:51.422Z,90.00
2018-03-24T14:20:20.507Z,92.30
2018-03-24T14:22:48.848Z,92.30
2018-03-24T14:25:17.157Z,92.50
2018-03-24T14:27:45.494Z,94.90
2018-03-24T14:30:13.805Z,93.90
2018-03-24T14:32:42.139Z,96.20
2018-03-24T14:35:10.463Z,97.20
2018-03-24T14:37:38.805Z,96.10
2018-03-24T14:40:07.137Z,95.50
2018-03-24T14:42:36.241Z,93.50
2018-03-24T14:45:05.326Z,91.80
2018-03-24T14:47:33.675Z,91.80
2018-03-24T14:50:02.765Z,92.00
2018-03-24T14:52:31.157Z,92.10
2018-03-24T14:54:59.468Z,93.60
2018-03-24T14:57:28.549Z,91.10
2018-03-24T14:59:56.937Z,91.10
2018-03-24T15:02:26.012Z,89.50
2018-03-24T15:04:54.345Z,88.90
2018-03-24T15:07:22.670Z,89.70
2018-03-24T15:09:51.029Z,92.00
2018-03-24T15:12:19.398Z,93.80
2018-03-24T15:14:47.709Z,90.60
2018-03-24T15:17:16.029Z,94.50
2018-03-24T15:19:44.368Z,93.30
2018-03-24T15:22:16.481Z,92.00
2018-03-24T15:24:44.814Z,90.60
2018-03-24T15:27:13.126Z,93.70
2018-03-24T15:29:53.425Z,97.20
2018-03-24T15:32:33.546Z,91.60
2018-03-24T15:35:13.737Z,92.60
2018-03-24T15:37:42.050Z,92.40
2018-03-24T15:40:11.145Z,94.20
2018-03-24T15:42:40.220Z,91.30
2018-03-24T15:45:08.556Z,91.20
2018-03-24T15:47:36.867Z,90.80
2018-03-24T15:50:05.206Z,92.60
2018-03-24T15:52:33.517Z,91.90
2018-03-24T15:55:05.514Z,92.50
2018-03-24T15:57:33.869Z,91.10
2018-03-24T16:00:02.227Z,94.60
2018-03-24T16:02:33.634Z,92.10
2018-03-24T16:05:02.731Z,93.00
2018-03-24T16:07:31.801Z,92.90
2018-03-24T16:10:00.152Z,92.90
2018-03-24T16:12:28.449Z,92.90
2018-03-24T16:14:56.780Z,93.60
2018-03-24T16:17:25.093Z,93.00
2018-03-24T16:19:53.429Z,93.60
2018-03-24T16:22:21.750Z,92.80
2018-03-24T16:24:50.114Z,93.10
2018-03-24T16:27:18.420Z,94.40
2018-03-24T16:29:46.748Z,93.40
2018-03-24T16:32:15.061Z,96.20
2018-03-24T16:34:43.391Z,96.50
2018-03-24T16:37:11.757Z,96.30
2018-03-24T16:39:40.961Z,95.70
2018-03-24T16:42:10.037Z,95.20
2018-03-24T16:44:38.374Z,94.80
2018-03-24T16:47:06.677Z,94.70
2018-03-24T16:49:35.016Z,98.30
2018-03-24T16:52:04.105Z,98.50
2018-03-24T16:54:35.906Z,98.20
2018-03-24T16:57:04.218Z,96.00
2018-03-24T16:59:33.321Z,98.00
2018-03-24T17:02:01.663Z,98.30
2018-03-24T17:04:29.992Z,98.20
2018-03-24T17:06:58.325Z,98.10
2018-03-24T17:09:26.649Z,99.30
2018-03-24T17:11:54.962Z,99.90
2018-03-24T17:14:23.297Z,99.90
2018-03-24T17:16:51.609Z,99.90
2018-03-24T17:19:19.943Z,99.90
2018-03-24T17:21:49.025Z,99.90
2018-03-24T17:24:18.122Z,99.90
2018-03-24T17:26:46.443Z,99.90
2018-03-24T17:29:14.783Z,99.90
2018-03-24T17:31:47.366Z,99.90
2018-03-24T17:34:20.760Z,99.90
2018-03-24T17:36:49.485Z,99.90
2018-03-24T17:42:07.128Z,99.90
2018-03-24T17:44:35.452Z,99.90
2018-03-24T17:47:04.522Z,99.90
2018-03-24T17:49:32.858Z,99.90
2018-03-24T17:52:01.172Z,99.90
2018-03-24T17:54:29.494Z,99.90
2018-03-24T17:56:57.783Z,99.90
2018-03-24T17:59:26.115Z,99.90
2018-03-24T18:01:55.197Z,99.90
2018-03-24T18:04:23.528Z,99.90
2018-03-24T18:06:51.824Z,99.90
2018-03-24T18:09:20.137Z,99.90
2018-03-24T18:11:48.498Z,99.90
2018-03-24T18:14:16.776Z,99.90
2018-03-24T18:16:45.107Z,99.90
2018-03-24T18:19:13.414Z,99.90
2018-03-24T18:21:41.756Z,99.90
2018-03-24T18:24:10.820Z,99.90
2018-03-24T18:26:39.140Z,99.90
2018-03-24T18:29:07.445Z,99.90
2018-03-24T18:31:35.768Z,99.90
2018-03-24T18:34:04.842Z,99.90
2018-03-24T18:36:33.196Z,99.90
2018-03-24T18:39:01.511Z,99.90
2018-03-24T18:41:29.837Z,99.90
2018-03-24T18:43:58.133Z,99.90
2018-03-24T18:46:26.460Z,99.90
2018-03-24T18:48:55.525Z,99.90
2018-03-24T18:51:23.854Z,99.90
2018-03-24T18:53:52.168Z,99.90
2018-03-24T18:56:20.496Z,99.90
2018-03-24T18:58:49.560Z,99.90
2018-03-24T19:01:17.893Z,99.90
2018-03-24T19:03:46.197Z,99.90
2018-03-24T19:06:14.533Z,99.90
2018-03-24T19:08:42.848Z,99.90
2018-03-24T19:11:11.149Z,99.90
2018-03-24T19:13:40.263Z,99.90
2018-03-24T19:16:09.336Z,99.90
2018-03-24T19:18:37.661Z,99.90
2018-03-24T19:21:05.957Z,99.90
2018-03-24T19:23:34.288Z,99.90
2018-03-24T19:26:03.365Z,99.90
2018-03-24T19:28:31.705Z,99.90
2018-03-24T19:31:00.013Z,99.90
2018-03-24T19:33:28.333Z,99.90
2018-03-24T19:35:57.404Z,99.90
2018-03-24T19:38:25.724Z,99.90
2018-03-24T19:40:54.025Z,99.90
2018-03-24T19:43:22.343Z,99.90
2018-03-24T19:45:50.651Z,99.90
2018-03-24T19:48:18.968Z,99.90
2018-03-24T19:50:47.273Z,99.90
2018-03-24T19:53:15.599Z,99.90
2018-03-24T19:55:43.918Z,99.90
2018-03-24T19:58:13.020Z,99.90
2018-03-24T20:00:41.332Z,99.90
2018-03-24T20:03:09.661Z,99.90
2018-03-24T20:05:37.960Z,99.90
2018-03-24T20:08:07.024Z,99.90
2018-03-24T20:10:35.378Z,99.90
2018-03-24T20:13:03.685Z,99.90
2018-03-24T20:15:32.022Z,99.90
2018-03-24T20:18:00.343Z,99.90
2018-03-24T20:20:28.669Z,99.90
2018-03-24T20:22:56.977Z,99.90
2018-03-24T20:25:25.297Z,99.90
2018-03-24T20:27:54.360Z,99.90
2018-03-24T20:30:22.684Z,99.90
2018-03-24T20:32:51.756Z,99.90
2018-03-24T20:35:20.086Z,99.90
2018-03-24T20:37:48.398Z,99.90
2018-03-24T20:40:16.720Z,99.90
2018-03-24T20:42:45.024Z,99.90
2018-03-24T20:45:13.354Z,99.90
2018-03-24T20:47:42.500Z,99.90
2018-03-24T20:50:10.764Z,99.90
2018-03-24T20:52:39.065Z,99.90
2018-03-24T20:55:07.383Z,99.90
2018-03-24T20:57:36.448Z,99.90
2018-03-24T21:00:04.776Z,99.90
2018-03-24T21:02:33.082Z,99.90
2018-03-24T21:05:01.385Z,99.90
2018-03-24T21:07:29.715Z,99.90
2018-03-24T21:09:58.020Z,99.90
2018-03-24T21:12:26.345Z,99.90
2018-03-24T21:14:55.414Z,99.90
2018-03-24T21:17:23.739Z,99.90
2018-03-24T21:19:52.040Z,99.90
2018-03-24T21:22:20.365Z,99.90
2018-03-24T21:24:49.433Z,99.90
2018-03-24T21:27:17.756Z,99.90
2018-03-24T21:29:46.057Z,99.90
2018-03-24T21:32:14.380Z,99.90
2018-03-24T21:34:42.681Z,99.90
2018-03-24T21:37:11.768Z,99.90
2018-03-24T21:39:40.841Z,99.90
2018-03-24T21:42:09.180Z,99.90
2018-03-24T21:44:37.498Z,99.90
2018-03-24T21:47:05.835Z,99.90
2018-03-24T21:49:34.145Z,99.90
2018-03-24T21:52:02.478Z,99.90
2018-03-24T21:54:30.788Z,99.90
2018-03-24T21:56:59.113Z,99.90
2018-03-24T21:59:28.188Z,99.90
2018-03-24T22:01:56.529Z,99.90
2018-03-24T22:04:24.839Z,99.90
2018-03-24T22:06:53.143Z,99.90
2018-03-24T22:09:22.239Z,99.90
2018-03-24T22:11:51.305Z,99.90
2018-03-24T22:14:19.641Z,99.90
2018-03-24T22:16:47.957Z,99.90
2018-03-24T22:19:16.280Z,99.90
2018-03-24T22:21:44.599Z,99.90
2018-03-24T22:24:12.952Z,99.90
2018-03-24T22:26:41.260Z,99.90
2018-03-24T22:29:09.593Z,99.90
2018-03-24T22:31:37.903Z,99.90
2018-03-24T22:34:06.239Z,99.90
2018-03-24T22:36:34.564Z,99.90
2018-03-24T22:39:02.904Z,99.90
2018-03-24T22:41:31.212Z,99.90
2018-03-24T22:43:59.544Z,99.90
2018-03-24T22:46:27.859Z,99.90
2018-03-24T22:48:56.199Z,99.90
2018-03-24T22:51:25.279Z,99.90
2018-03-24T22:53:54.384Z,99.90
2018-03-24T22:56:23.456Z,99.90
2018-03-24T22:58:51.780Z,99.90
2018-03-24T23:01:21.964Z,99.90
2018-03-24T23:03:50.288Z,99.90
2018-03-24T23:06:18.604Z,99.90
2018-03-24T23:08:46.941Z,99.90
2018-03-24T23:11:15.253Z,99.90
2018-03-24T23:13:43.554Z,99.90
2018-03-24T23:16:11.876Z,99.90
2018-03-24T23:18:40.176Z,99.90
2018-03-24T23:21:08.508Z,99.90
2018-03-24T23:23:37.605Z,99.90
2018-03-24T23:26:06.700Z,99.90
2018-03-24T23:28:35.771Z,99.90
2018-03-24T23:31:04.888Z,99.90
2018-03-24T23:33:33.952Z,99.90
2018-03-24T23:36:02.288Z,99.90
2018-03-24T23:38:30.590Z,99.90
2018-03-24T23:40:58.983Z,99.90
2018-03-24T23:43:27.291Z,99.90
2018-03-24T23:45:56.387Z,99.90
2018-03-24T23:48:25.457Z,99.90
